sensor_id;sensor_type;location;lat;lon;timestamp;pressure;altitude;pressure_sealevel;temperature;humidity
60355;BME280;46198;51.464;-0.066;2022-11-20T00:01:40;101142.72;;;6.27;100.00
60355;BME280;46198;51.464;-0.066;2022-11-20T00:04:10;101133.47;;;6.21;100.00
60355;BME280;46198;51.464;-0.066;2022-11-20T00:06:38;101129.56;;;6.24;100.00
60355;BME280;46198;51.464;-0.066;2022-11-20T00:09:09;101122.34;;;6.25;100.00
60355;BME280;46198;51.464;-0.066;2022-11-20T00:11:37;101127.72;;;6.25;100.00
60355;BME280;46198;51.464;-0.066;2022-11-20T00:14:08;101123.16;;;6.25;100.00
60355;BME280;46198;51.464;-0.066;2022-11-20T00:16:37;101126.53;;;6.27;100.00
60355;BME280;46198;51.464;-0.066;2022-11-20T00:19:07;101124.84;;;6.26;100.00
60355;BME280;46198;51.464;-0.066;2022-11-20T00:21:35;101125.66;;;6.27;100.00
60355;BME280;46198;51.464;-0.066;2022-11-20T00:24:07;101123.16;;;6.25;100.00
60355;BME280;46198;51.464;-0.066;2022-11-20T00:26:37;101119.94;;;6.30;100.00
60355;BME280;46198;51.464;-0.066;2022-11-20T00:29:11;101109.47;;;6.27;100.00
60355;BME280;46198;51.464;-0.066;2022-11-20T00:31:44;101108.66;;;6.26;100.00
60355;BME280;46198;51.464;-0.066;2022-11-20T00:34:12;101101.22;;;6.28;100.00
60355;BME280;46198;51.464;-0.066;2022-11-20T00:36:40;101099.34;;;6.29;100.00
60355;BME280;46198;51.464;-0.066;2022-11-20T00:39:09;101093.97;;;6.29;100.00
60355;BME280;46198;51.464;-0.066;2022-11-20T00:41:39;101089.22;;;6.31;100.00
60355;BME280;46198;51.464;-0.066;2022-11-20T00:44:07;101090.06;;;6.31;100.00
60355;BME280;46198;51.464;-0.066;2022-11-20T00:46:36;101090.91;;;6.32;100.00
60355;BME280;46198;51.464;-0.066;2022-11-20T00:49:04;101089.22;;;6.31;100.00
60355;BME280;46198;51.464;-0.066;2022-11-20T00:51:32;101081.13;;;6.31;100.00
60355;BME280;46198;51.464;-0.066;2022-11-20T00:54:00;101078.44;;;6.31;100.00
60355;BME280;46198;51.464;-0.066;2022-11-20T00:56:29;101074.91;;;6.30;100.00
60355;BME280;46198;51.464;-0.066;2022-11-20T00:59:00;101081.41;;;6.36;100.00
60355;BME280;46198;51.464;-0.066;2022-11-20T01:01:28;101079.38;;;6.38;100.00
60355;BME280;46198;51.464;-0.066;2022-11-20T01:03:59;101070.44;;;6.37;100.00
60355;BME280;46198;51.464;-0.066;2022-11-20T01:06:28;101070.63;;;6.36;100.00
60355;BME280;46198;51.464;-0.066;2022-11-20T01:08:59;101066.72;;;6.38;100.00
60355;BME280;46198;51.464;-0.066;2022-11-20T01:11:30;101066.53;;;6.40;100.00
60355;BME280;46198;51.464;-0.066;2022-11-20T01:14:02;101063.44;;;6.43;100.00
60355;BME280;46198;51.464;-0.066;2022-11-20T01:16:33;101057.06;;;6.44;100.00
60355;BME280;46198;51.464;-0.066;2022-11-20T01:19:04;101062.44;;;6.44;100.00
60355;BME280;46198;51.464;-0.066;2022-11-20T01:21:34;101063.09;;;6.46;100.00
60355;BME280;46198;51.464;-0.066;2022-11-20T01:24:05;101060.75;;;6.43;100.00
60355;BME280;46198;51.464;-0.066;2022-11-20T01:26:36;101055.47;;;6.50;100.00
60355;BME280;46198;51.464;-0.066;2022-11-20T01:29:09;101050.25;;;6.48;100.00
60355;BME280;46198;51.464;-0.066;2022-11-20T01:31:40;101047.16;;;6.51;100.00
60355;BME280;46198;51.464;-0.066;2022-11-20T01:34:10;101043.47;;;6.52;100.00
60355;BME280;46198;51.464;-0.066;2022-11-20T01:36:40;101038.53;;;6.56;100.00
60355;BME280;46198;51.464;-0.066;2022-11-20T01:39:11;101032.28;;;6.55;100.00
60355;BME280;46198;51.464;-0.066;2022-11-20T01:41:40;101033.94;;;6.56;100.00
60355;BME280;46198;51.464;-0.066;2022-11-20T01:44:50;101018.41;;;6.58;100.00
60355;BME280;46198;51.464;-0.066;2022-11-20T01:47:29;101009.94;;;6.61;100.00
60355;BME280;46198;51.464;-0.066;2022-11-20T01:50:03;101008.28;;;6.60;100.00
60355;BME280;46198;51.464;-0.066;2022-11-20T01:52:34;100997.09;;;6.63;100.00
60355;BME280;46198;51.464;-0.066;2022-11-20T01:55:06;101004.16;;;6.64;100.00
60355;BME280;46198;51.464;-0.066;2022-11-20T01:57:36;101001.69;;;6.63;100.00
60355;BME280;46198;51.464;-0.066;2022-11-20T02:00:10;101002.13;;;6.66;100.00
60355;BME280;46198;51.464;-0.066;2022-11-20T02:02:43;100990.06;;;6.62;100.00
60355;BME280;46198;51.464;-0.066;2022-11-20T02:05:16;100995.06;;;6.65;100.00
60355;BME280;46198;51.464;-0.066;2022-11-20T02:07:46;100998.03;;;6.71;100.00
60355;BME280;46198;51.464;-0.066;2022-11-20T02:10:15;100992.63;;;6.71;100.00
60355;BME280;46198;51.464;-0.066;2022-11-20T02:12:43;100988.44;;;6.68;100.00
60355;BME280;46198;51.464;-0.066;2022-11-20T02:15:32;100982.56;;;6.64;100.00
60355;BME280;46198;51.464;-0.066;2022-11-20T02:18:01;100973.88;;;6.62;100.00
60355;BME280;46198;51.464;-0.066;2022-11-20T02:20:29;100969.34;;;6.70;100.00
60355;BME280;46198;51.464;-0.066;2022-11-20T02:23:01;100968.53;;;6.69;100.00
60355;BME280;46198;51.464;-0.066;2022-11-20T02:25:34;100970.00;;;6.72;100.00
60355;BME280;46198;51.464;-0.066;2022-11-20T02:28:03;100961.25;;;6.70;100.00
60355;BME280;46198;51.464;-0.066;2022-11-20T02:30:32;100950.28;;;6.71;100.00
60355;BME280;46198;51.464;-0.066;2022-11-20T02:33:01;100950.72;;;6.75;100.00
60355;BME280;46198;51.464;-0.066;2022-11-20T02:35:43;100934.94;;;6.72;100.00
60355;BME280;46198;51.464;-0.066;2022-11-20T02:38:12;100942.38;;;6.70;100.00
60355;BME280;46198;51.464;-0.066;2022-11-20T02:40:42;100940.72;;;6.69;100.00
60355;BME280;46198;51.464;-0.066;2022-11-20T02:43:15;100933.31;;;6.77;100.00
60355;BME280;46198;51.464;-0.066;2022-11-20T02:45:43;100929.16;;;6.75;100.00
60355;BME280;46198;51.464;-0.066;2022-11-20T02:48:11;100924.78;;;6.74;100.00
60355;BME280;46198;51.464;-0.066;2022-11-20T02:50:39;100920.78;;;6.70;100.00
60355;BME280;46198;51.464;-0.066;2022-11-20T02:53:08;100918.75;;;6.72;100.00
60355;BME280;46198;51.464;-0.066;2022-11-20T02:55:36;100915.09;;;6.79;100.00
60355;BME280;46198;51.464;-0.066;2022-11-20T02:58:06;100901.75;;;6.78;100.00
60355;BME280;46198;51.464;-0.066;2022-11-20T03:00:34;100906.72;;;6.74;100.00
60355;BME280;46198;51.464;-0.066;2022-11-20T03:03:02;100899.47;;;6.75;100.00
60355;BME280;46198;51.464;-0.066;2022-11-20T03:05:30;100891.38;;;6.75;100.00
60355;BME280;46198;51.464;-0.066;2022-11-20T03:07:58;100906.34;;;6.77;100.00
60355;BME280;46198;51.464;-0.066;2022-11-20T03:10:27;100899.53;;;6.81;100.00
60355;BME280;46198;51.464;-0.066;2022-11-20T03:12:55;100899.28;;;6.76;100.00
60355;BME280;46198;51.464;-0.066;2022-11-20T03:15:25;100898.69;;;6.81;100.00
60355;BME280;46198;51.464;-0.066;2022-11-20T03:17:53;100894.38;;;6.86;100.00
60355;BME280;46198;51.464;-0.066;2022-11-20T03:20:22;100886.47;;;6.85;100.00
60355;BME280;46198;51.464;-0.066;2022-11-20T03:22:53;100886.47;;;6.85;100.00
60355;BME280;46198;51.464;-0.066;2022-11-20T03:25:22;100881.13;;;6.92;100.00
60355;BME280;46198;51.464;-0.066;2022-11-20T03:27:50;100887.38;;;6.92;100.00
60355;BME280;46198;51.464;-0.066;2022-11-20T03:30:18;100872.63;;;6.95;100.00
60355;BME280;46198;51.464;-0.066;2022-11-20T03:32:48;100875.34;;;6.95;100.00
60355;BME280;46198;51.464;-0.066;2022-11-20T03:35:16;100867.50;;;7.00;100.00
60355;BME280;46198;51.464;-0.066;2022-11-20T03:37:44;100866.66;;;6.99;100.00
60355;BME280;46198;51.464;-0.066;2022-11-20T03:40:13;100860.25;;;7.00;100.00
60355;BME280;46198;51.464;-0.066;2022-11-20T03:42:41;100860.47;;;7.05;100.00
60355;BME280;46198;51.464;-0.066;2022-11-20T03:45:16;100860.09;;;7.08;100.00
60355;BME280;46198;51.464;-0.066;2022-11-20T03:47:45;100865.09;;;7.12;100.00
60355;BME280;46198;51.464;-0.066;2022-11-20T03:50:15;100861.38;;;7.13;100.00
60355;BME280;46198;51.464;-0.066;2022-11-20T03:52:43;100846.81;;;7.14;100.00
60355;BME280;46198;51.464;-0.066;2022-11-20T03:55:11;100837.31;;;7.18;100.00
60355;BME280;46198;51.464;-0.066;2022-11-20T03:57:39;100846.66;;;7.22;100.00
60355;BME280;46198;51.464;-0.066;2022-11-20T04:00:08;100841.91;;;7.24;100.00
60355;BME280;46198;51.464;-0.066;2022-11-20T04:02:37;100839.03;;;7.25;100.00
60355;BME280;46198;51.464;-0.066;2022-11-20T04:05:05;100829.28;;;7.31;100.00
60355;BME280;46198;51.464;-0.066;2022-11-20T04:07:35;100838.22;;;7.31;100.00
60355;BME280;46198;51.464;-0.066;2022-11-20T04:10:04;100823.69;;;7.32;100.00
60355;BME280;46198;51.464;-0.066;2022-11-20T04:12:35;100825.78;;;7.37;100.00
60355;BME280;46198;51.464;-0.066;2022-11-20T04:15:04;100822.03;;;7.38;100.00
60355;BME280;46198;51.464;-0.066;2022-11-20T04:17:32;100820.81;;;7.41;100.00
60355;BME280;46198;51.464;-0.066;2022-11-20T04:20:00;100814.19;;;7.43;100.00
60355;BME280;46198;51.464;-0.066;2022-11-20T04:22:29;100814.19;;;7.43;100.00
60355;BME280;46198;51.464;-0.066;2022-11-20T04:25:00;100811.28;;;7.45;100.00
60355;BME280;46198;51.464;-0.066;2022-11-20T04:27:30;100808.59;;;7.45;100.00
60355;BME280;46198;51.464;-0.066;2022-11-20T04:29:59;100806.97;;;7.50;100.00
60355;BME280;46198;51.464;-0.066;2022-11-20T04:32:27;100802.97;;;7.46;100.00
60355;BME280;46198;51.464;-0.066;2022-11-20T04:34:56;100804.84;;;7.46;100.00
60355;BME280;46198;51.464;-0.066;2022-11-20T04:37:24;100788.63;;;7.46;100.00
60355;BME280;46198;51.464;-0.066;2022-11-20T04:39:52;100786.56;;;7.41;100.00
60355;BME280;46198;51.464;-0.066;2022-11-20T04:42:21;100786.56;;;7.41;100.00
60355;BME280;46198;51.464;-0.066;2022-11-20T04:44:58;100782.16;;;7.40;100.00
60355;BME280;46198;51.464;-0.066;2022-11-20T04:47:27;100775.28;;;7.38;100.00
60355;BME280;46198;51.464;-0.066;2022-11-20T04:49:55;100779.22;;;7.35;100.00
60355;BME280;46198;51.464;-0.066;2022-11-20T04:52:23;100779.47;;;7.40;100.00
60355;BME280;46198;51.464;-0.066;2022-11-20T04:54:52;100776.13;;;7.38;100.00
60355;BME280;46198;51.464;-0.066;2022-11-20T04:57:22;100769.72;;;7.39;100.00
60355;BME280;46198;51.464;-0.066;2022-11-20T04:59:50;100765.13;;;7.40;100.00
60355;BME280;46198;51.464;-0.066;2022-11-20T05:02:18;100769.28;;;7.36;100.00
60355;BME280;46198;51.464;-0.066;2022-11-20T05:04:47;100762.19;;;7.35;100.00
60355;BME280;46198;51.464;-0.066;2022-11-20T05:07:15;100761.38;;;7.41;100.00
60355;BME280;46198;51.464;-0.066;2022-11-20T05:09:44;100746.03;;;7.41;100.00
60355;BME280;46198;51.464;-0.066;2022-11-20T05:12:12;100734.34;;;7.34;100.00
60355;BME280;46198;51.464;-0.066;2022-11-20T05:14:42;100731.66;;;7.34;100.00
60355;BME280;46198;51.464;-0.066;2022-11-20T05:17:10;100726.84;;;7.29;100.00
60355;BME280;46198;51.464;-0.066;2022-11-20T05:19:39;100711.09;;;7.33;100.00
60355;BME280;46198;51.464;-0.066;2022-11-20T05:22:07;100715.22;;;7.29;100.00
60355;BME280;46198;51.464;-0.066;2022-11-20T05:24:35;100719.56;;;7.30;100.00
60355;BME280;46198;51.464;-0.066;2022-11-20T05:27:03;100718.56;;;7.31;100.00
60355;BME280;46198;51.464;-0.066;2022-11-20T05:29:31;100716.03;;;7.29;100.00
60355;BME280;46198;51.464;-0.066;2022-11-20T05:32:01;100711.88;;;7.27;100.00
60355;BME280;46198;51.464;-0.066;2022-11-20T05:34:29;100705.06;;;7.31;100.00
60355;BME280;46198;51.464;-0.066;2022-11-20T05:36:57;100694.88;;;7.33;100.00
60355;BME280;46198;51.464;-0.066;2022-11-20T05:39:25;100688.03;;;7.30;100.00
60355;BME280;46198;51.464;-0.066;2022-11-20T05:41:53;100683.69;;;7.36;100.00
60355;BME280;46198;51.464;-0.066;2022-11-20T05:44:35;100680.75;;;7.31;100.00
60355;BME280;46198;51.464;-0.066;2022-11-20T05:47:05;100691.31;;;7.32;100.00
60355;BME280;46198;51.464;-0.066;2022-11-20T05:49:33;100689.91;;;7.37;100.00
60355;BME280;46198;51.464;-0.066;2022-11-20T05:52:01;100684.50;;;7.37;100.00
60355;BME280;46198;51.464;-0.066;2022-11-20T05:54:30;100682.00;;;7.35;100.00
60355;BME280;46198;51.464;-0.066;2022-11-20T05:56:58;100677.22;;;7.37;100.00
60355;BME280;46198;51.464;-0.066;2022-11-20T05:59:26;100675.75;;;7.35;100.00
60355;BME280;46198;51.464;-0.066;2022-11-20T06:01:54;100658.72;;;7.34;100.00
60355;BME280;46198;51.464;-0.066;2022-11-20T06:04:24;100662.06;;;7.36;100.00
60355;BME280;46198;51.464;-0.066;2022-11-20T06:06:52;100664.13;;;7.34;100.00
60355;BME280;46198;51.464;-0.066;2022-11-20T06:09:20;100667.88;;;7.40;100.00
60355;BME280;46198;51.464;-0.066;2022-11-20T06:11:48;100655.03;;;7.42;100.00
60355;BME280;46198;51.464;-0.066;2022-11-20T06:14:16;100645.22;;;7.41;100.00
60355;BME280;46198;51.464;-0.066;2022-11-20T06:16:44;100636.94;;;7.42;100.00
60355;BME280;46198;51.464;-0.066;2022-11-20T06:19:13;100639.22;;;7.45;100.00
60355;BME280;46198;51.464;-0.066;2022-11-20T06:21:43;100635.69;;;7.45;100.00
60355;BME280;46198;51.464;-0.066;2022-11-20T06:24:11;100637.78;;;7.49;100.00
60355;BME280;46198;51.464;-0.066;2022-11-20T06:26:39;100627.38;;;7.46;100.00
60355;BME280;46198;51.464;-0.066;2022-11-20T06:29:07;100623.44;;;7.49;100.00
60355;BME280;46198;51.464;-0.066;2022-11-20T06:31:36;100620.94;;;7.47;100.00
60355;BME280;46198;51.464;-0.066;2022-11-20T06:34:04;100618.88;;;7.49;100.00
60355;BME280;46198;51.464;-0.066;2022-11-20T06:36:33;100622.41;;;7.50;100.00
60355;BME280;46198;51.464;-0.066;2022-11-20T06:39:03;100608.91;;;7.57;100.00
60355;BME280;46198;51.464;-0.066;2022-11-20T06:41:33;100611.00;;;7.54;100.00
60355;BME280;46198;51.464;-0.066;2022-11-20T06:44:05;100604.31;;;7.57;100.00
60355;BME280;46198;51.464;-0.066;2022-11-20T06:46:33;100596.44;;;7.55;100.00
60355;BME280;46198;51.464;-0.066;2022-11-20T06:49:01;100598.09;;;7.57;100.00
60355;BME280;46198;51.464;-0.066;2022-11-20T06:51:29;100590.63;;;7.59;100.00
60355;BME280;46198;51.464;-0.066;2022-11-20T06:53:58;100587.09;;;7.58;100.00
60355;BME280;46198;51.464;-0.066;2022-11-20T06:56:28;100566.94;;;7.61;100.00
60355;BME280;46198;51.464;-0.066;2022-11-20T06:58:57;100568.16;;;7.65;100.00
60355;BME280;46198;51.464;-0.066;2022-11-20T07:01:25;100567.75;;;7.61;100.00
60355;BME280;46198;51.464;-0.066;2022-11-20T07:03:53;100562.97;;;7.70;100.00
60355;BME280;46198;51.464;-0.066;2022-11-20T07:06:21;100556.94;;;7.68;100.00
60355;BME280;46198;51.464;-0.066;2022-11-20T07:08:50;100547.41;;;7.72;100.00
60355;BME280;46198;51.464;-0.066;2022-11-20T07:11:19;100549.03;;;7.73;100.00
60355;BME280;46198;51.464;-0.066;2022-11-20T07:13:49;100552.38;;;7.75;100.00
60355;BME280;46198;51.464;-0.066;2022-11-20T07:16:18;100555.72;;;7.77;100.00
60355;BME280;46198;51.464;-0.066;2022-11-20T07:18:46;100560.69;;;7.73;100.00
60355;BME280;46198;51.464;-0.066;2022-11-20T07:21:17;100567.38;;;7.71;100.00
60355;BME280;46198;51.464;-0.066;2022-11-20T07:23:45;100580.66;;;7.72;100.00
60355;BME280;46198;51.464;-0.066;2022-11-20T07:26:13;100600.19;;;7.61;100.00
60355;BME280;46198;51.464;-0.066;2022-11-20T07:28:44;100591.25;;;7.61;100.00
60355;BME280;46198;51.464;-0.066;2022-11-20T07:31:13;100593.13;;;7.67;100.00
60355;BME280;46198;51.464;-0.066;2022-11-20T07:33:45;100597.69;;;7.73;100.00
60355;BME280;46198;51.464;-0.066;2022-11-20T07:36:13;100575.06;;;7.74;100.00
60355;BME280;46198;51.464;-0.066;2022-11-20T07:38:41;100582.94;;;7.75;100.00
60355;BME280;46198;51.464;-0.066;2022-11-20T07:41:09;100569.22;;;7.77;100.00
60355;BME280;46198;51.464;-0.066;2022-11-20T07:43:37;100575.88;;;7.81;100.00
60355;BME280;46198;51.464;-0.066;2022-11-20T07:46:07;100581.47;;;7.86;100.00
60355;BME280;46198;51.464;-0.066;2022-11-20T07:48:37;100595.00;;;7.86;100.00
60355;BME280;46198;51.464;-0.066;2022-11-20T07:51:05;100587.31;;;7.90;100.00
60355;BME280;46198;51.464;-0.066;2022-11-20T07:53:33;100580.88;;;7.91;100.00
60355;BME280;46198;51.464;-0.066;2022-11-20T07:56:02;100576.91;;;7.93;100.00
60355;BME280;46198;51.464;-0.066;2022-11-20T07:58:31;100584.81;;;7.95;100.00
60355;BME280;46198;51.464;-0.066;2022-11-20T08:01:04;100572.97;;;7.96;100.00
60355;BME280;46198;51.464;-0.066;2022-11-20T08:03:32;100570.91;;;7.98;100.00
60355;BME280;46198;51.464;-0.066;2022-11-20T08:06:02;100578.78;;;7.99;100.00
60355;BME280;46198;51.464;-0.066;2022-11-20T08:08:30;100571.28;;;8.02;100.00
60355;BME280;46198;51.464;-0.066;2022-11-20T08:11:00;100583.34;;;8.06;100.00
60355;BME280;46198;51.464;-0.066;2022-11-20T08:13:42;100594.78;;;8.08;100.00
60355;BME280;46198;51.464;-0.066;2022-11-20T08:16:28;100592.72;;;8.10;100.00
60355;BME280;46198;51.464;-0.066;2022-11-20T08:18:56;100595.19;;;8.11;100.00
60355;BME280;46198;51.464;-0.066;2022-11-20T08:21:25;100605.81;;;8.13;100.00
60355;BME280;46198;51.464;-0.066;2022-11-20T08:23:53;100620.56;;;8.17;100.00
60355;BME280;46198;51.464;-0.066;2022-11-20T08:26:21;100617.47;;;8.20;100.00
60355;BME280;46198;51.464;-0.066;2022-11-20T08:28:53;100623.69;;;8.20;100.00
60355;BME280;46198;51.464;-0.066;2022-11-20T08:31:21;100624.09;;;8.24;100.00
60355;BME280;46198;51.464;-0.066;2022-11-20T08:33:49;100643.47;;;8.21;100.00
60355;BME280;46198;51.464;-0.066;2022-11-20T08:36:18;100651.38;;;8.23;100.00
60355;BME280;46198;51.464;-0.066;2022-11-20T08:38:48;100645.75;;;8.24;100.00
60355;BME280;46198;51.464;-0.066;2022-11-20T08:41:17;100644.31;;;8.28;100.00
60355;BME280;46198;51.464;-0.066;2022-11-20T08:43:56;100653.03;;;8.24;100.00
60355;BME280;46198;51.464;-0.066;2022-11-20T08:46:27;100645.09;;;8.22;100.00
60355;BME280;46198;51.464;-0.066;2022-11-20T08:48:55;100645.09;;;8.22;100.00
60355;BME280;46198;51.464;-0.066;2022-11-20T08:51:23;100644.72;;;8.18;100.00
60355;BME280;46198;51.464;-0.066;2022-11-20T08:53:52;100656.78;;;8.16;100.00
60355;BME280;46198;51.464;-0.066;2022-11-20T08:56:20;100658.84;;;8.07;100.00
60355;BME280;46198;51.464;-0.066;2022-11-20T08:58:50;100660.09;;;8.18;100.00
60355;BME280;46198;51.464;-0.066;2022-11-20T09:01:38;100661.56;;;8.20;100.00
60355;BME280;46198;51.464;-0.066;2022-11-20T09:04:06;100661.97;;;8.24;100.00
60355;BME280;46198;51.464;-0.066;2022-11-20T09:06:34;100661.34;;;8.22;100.00
60355;BME280;46198;51.464;-0.066;2022-11-20T09:09:04;100667.81;;;8.21;100.00
60355;BME280;46198;51.464;-0.066;2022-11-20T09:11:34;100665.72;;;8.30;100.00
60355;BME280;46198;51.464;-0.066;2022-11-20T09:14:02;100671.78;;;8.25;100.00
60355;BME280;46198;51.464;-0.066;2022-11-20T09:16:31;100668.00;;;8.26;100.00
60355;BME280;46198;51.464;-0.066;2022-11-20T09:18:59;100667.59;;;8.29;100.00
60355;BME280;46198;51.464;-0.066;2022-11-20T09:21:47;100669.47;;;8.29;100.00
60355;BME280;46198;51.464;-0.066;2022-11-20T09:24:17;100659.50;;;8.23;100.00
60355;BME280;46198;51.464;-0.066;2022-11-20T09:26:47;100658.88;;;8.20;100.00
60355;BME280;46198;51.464;-0.066;2022-11-20T09:29:15;100662.19;;;8.29;100.00
60355;BME280;46198;51.464;-0.066;2022-11-20T09:31:43;100652.19;;;8.30;100.00
60355;BME280;46198;51.464;-0.066;2022-11-20T09:34:11;100665.94;;;8.28;100.00
60355;BME280;46198;51.464;-0.066;2022-11-20T09:36:39;100678.44;;;8.23;100.00
60355;BME280;46198;51.464;-0.066;2022-11-20T09:39:07;100684.25;;;8.26;100.00
60355;BME280;46198;51.464;-0.066;2022-11-20T09:41:54;100699.41;;;8.27;100.00
60355;BME280;46198;51.464;-0.066;2022-11-20T09:44:36;100692.13;;;8.28;100.00
60355;BME280;46198;51.464;-0.066;2022-11-20T09:47:11;100698.19;;;8.30;100.00
60355;BME280;46198;51.464;-0.066;2022-11-20T09:49:55;100706.72;;;8.33;100.00
60355;BME280;46198;51.464;-0.066;2022-11-20T09:52:33;100693.59;;;8.37;100.00
60355;BME280;46198;51.464;-0.066;2022-11-20T09:55:10;100700.47;;;8.26;100.00
60355;BME280;46198;51.464;-0.066;2022-11-20T09:57:42;100697.75;;;8.26;100.00
60355;BME280;46198;51.464;-0.066;2022-11-20T10:00:14;100700.06;;;8.23;100.00
60355;BME280;46198;51.464;-0.066;2022-11-20T10:02:45;100693.59;;;8.24;100.00
60355;BME280;46198;51.464;-0.066;2022-11-20T10:05:19;100690.28;;;8.21;100.00
60355;BME280;46198;51.464;-0.066;2022-11-20T10:07:53;100670.50;;;8.21;100.00
60355;BME280;46198;51.464;-0.066;2022-11-20T10:10:31;100658.03;;;8.27;100.00
60355;BME280;46198;51.464;-0.066;2022-11-20T10:13:20;100666.34;;;8.25;100.00
60355;BME280;46198;51.464;-0.066;2022-11-20T10:15:59;100664.88;;;8.29;100.00
60355;BME280;46198;51.464;-0.066;2022-11-20T10:18:42;100669.69;;;8.34;100.00
60355;BME280;46198;51.464;-0.066;2022-11-20T10:21:22;100666.34;;;8.25;100.00
60355;BME280;46198;51.464;-0.066;2022-11-20T10:24:02;100669.88;;;8.32;100.00
60355;BME280;46198;51.464;-0.066;2022-11-20T10:26:42;100675.28;;;8.32;100.00
60355;BME280;46198;51.464;-0.066;2022-11-20T10:29:15;100663.03;;;8.36;100.00
60355;BME280;46198;51.464;-0.066;2022-11-20T10:31:46;100664.66;;;8.37;100.00
60355;BME280;46198;51.464;-0.066;2022-11-20T10:34:22;100660.75;;;8.40;100.00
60355;BME280;46198;51.464;-0.066;2022-11-20T10:36:55;100656.16;;;8.40;100.00
60355;BME280;46198;51.464;-0.066;2022-11-20T10:39:31;100656.78;;;8.42;100.00
60355;BME280;46198;51.464;-0.066;2022-11-20T10:42:00;100659.06;;;8.46;100.00
60355;BME280;46198;51.464;-0.066;2022-11-20T10:44:30;100649.28;;;8.51;100.00
60355;BME280;46198;51.464;-0.066;2022-11-20T10:47:22;100662.81;;;8.51;100.00
60355;BME280;46198;51.464;-0.066;2022-11-20T10:49:52;100670.94;;;8.58;100.00
60355;BME280;46198;51.464;-0.066;2022-11-20T10:52:28;100670.50;;;8.61;100.00
60355;BME280;46198;51.464;-0.066;2022-11-20T10:55:07;100657.19;;;8.66;100.00
60355;BME280;46198;51.464;-0.066;2022-11-20T10:57:52;100652.78;;;8.65;100.00
60355;BME280;46198;51.464;-0.066;2022-11-20T11:00:24;100655.06;;;8.68;100.00
60355;BME280;46198;51.464;-0.066;2022-11-20T11:02:53;100656.75;;;8.69;100.00
60355;BME280;46198;51.464;-0.066;2022-11-20T11:05:35;100659.66;;;8.68;100.00
60355;BME280;46198;51.464;-0.066;2022-11-20T11:08:07;100664.22;;;8.74;100.00
60355;BME280;46198;51.464;-0.066;2022-11-20T11:10:46;100665.06;;;8.74;100.00
60355;BME280;46198;51.464;-0.066;2022-11-20T11:13:22;100669.59;;;8.87;100.00
60355;BME280;46198;51.464;-0.066;2022-11-20T11:15:53;100668.97;;;8.92;100.00
60355;BME280;46198;51.464;-0.066;2022-11-20T11:18:23;100655.63;;;8.97;100.00
60355;BME280;46198;51.464;-0.066;2022-11-20T11:20:53;100661.66;;;8.99;100.00
60355;BME280;46198;51.464;-0.066;2022-11-20T11:23:32;100663.09;;;9.08;100.00
60355;BME280;46198;51.464;-0.066;2022-11-20T11:26:03;100665.59;;;9.09;100.00
60355;BME280;46198;51.464;-0.066;2022-11-20T11:28:32;100667.88;;;9.13;100.00
60355;BME280;46198;51.464;-0.066;2022-11-20T11:31:02;100668.66;;;9.26;100.00
60355;BME280;46198;51.464;-0.066;2022-11-20T11:33:31;100661.97;;;9.22;100.00
60355;BME280;46198;51.464;-0.066;2022-11-20T11:36:02;100671.53;;;9.31;100.00
60355;BME280;46198;51.464;-0.066;2022-11-20T11:38:35;100655.47;;;9.30;100.00
60355;BME280;46198;51.464;-0.066;2022-11-20T11:41:05;100664.84;;;9.34;100.00
60355;BME280;46198;51.464;-0.066;2022-11-20T11:43:36;100660.00;;;9.43;100.00
60355;BME280;46198;51.464;-0.066;2022-11-20T11:46:28;100658.53;;;9.47;100.00
60355;BME280;46198;51.464;-0.066;2022-11-20T11:48:58;100646.84;;;9.53;100.00
60355;BME280;46198;51.464;-0.066;2022-11-20T11:51:30;100643.44;;;9.58;100.00
60355;BME280;46198;51.464;-0.066;2022-11-20T11:54:01;100640.28;;;9.61;100.00
60355;BME280;46198;51.464;-0.066;2022-11-20T11:56:33;100631.25;;;9.73;100.00
60355;BME280;46198;51.464;-0.066;2022-11-20T11:59:06;100629.59;;;9.72;100.00
60355;BME280;46198;51.464;-0.066;2022-11-20T12:01:44;100622.22;;;9.80;100.00
60355;BME280;46198;51.464;-0.066;2022-11-20T12:04:21;100625.72;;;9.87;100.00
60355;BME280;46198;51.464;-0.066;2022-11-20T12:06:57;100622.56;;;9.90;100.00
60355;BME280;46198;51.464;-0.066;2022-11-20T12:09:52;100633.97;;;9.98;100.00
60355;BME280;46198;51.464;-0.066;2022-11-20T12:12:27;100631.84;;;10.07;100.00
60355;BME280;46198;51.464;-0.066;2022-11-20T12:14:56;100627.47;;;10.06;100.00
60355;BME280;46198;51.464;-0.066;2022-11-20T12:17:27;100635.47;;;10.19;100.00
60355;BME280;46198;51.464;-0.066;2022-11-20T12:19:56;100628.97;;;10.27;100.00
60355;BME280;46198;51.464;-0.066;2022-11-20T12:22:31;100627.50;;;10.25;100.00
60355;BME280;46198;51.464;-0.066;2022-11-20T12:25:08;100627.09;;;10.28;100.00
60355;BME280;46198;51.464;-0.066;2022-11-20T12:27:49;100618.66;;;10.36;100.00
60355;BME280;46198;51.464;-0.066;2022-11-20T12:30:22;100619.59;;;10.48;100.00
60355;BME280;46198;51.464;-0.066;2022-11-20T12:33:06;100617.19;;;10.58;100.00
60355;BME280;46198;51.464;-0.066;2022-11-20T12:35:58;100626.25;;;10.71;100.00
60355;BME280;46198;51.464;-0.066;2022-11-20T12:38:58;100620.81;;;10.71;100.00
60355;BME280;46198;51.464;-0.066;2022-11-20T12:41:47;100621.28;;;10.86;100.00
60355;BME280;46198;51.464;-0.066;2022-11-20T12:48:01;100645.72;;;10.86;100.00
60355;BME280;46198;51.464;-0.066;2022-11-20T12:50:43;100636.34;;;10.82;100.00
60355;BME280;46198;51.464;-0.066;2022-11-20T12:53:42;100642.41;;;10.84;100.00
60355;BME280;46198;51.464;-0.066;2022-11-20T12:56:24;100631.06;;;10.87;100.00
60355;BME280;46198;51.464;-0.066;2022-11-20T12:59:12;100636.44;;;10.75;100.00
60355;BME280;46198;51.464;-0.066;2022-11-20T13:01:48;100644.97;;;10.79;100.00
60355;BME280;46198;51.464;-0.066;2022-11-20T13:04:32;100638.63;;;10.85;100.00
60355;BME280;46198;51.464;-0.066;2022-11-20T13:07:10;100647.53;;;10.74;100.00